createdAt,value
2019-01-20T00:03:01.641Z,70.22
2019-01-20T00:08:07.652Z,70.34
2019-01-20T00:13:13.589Z,70.43
2019-01-20T00:18:19.594Z,70.31
2019-01-20T00:23:25.419Z,70.01
2019-01-20T00:28:31.146Z,69.79
2019-01-20T00:33:37.796Z,69.33
2019-01-20T00:38:44.068Z,68.94
2019-01-20T00:43:50.120Z,68.81
2019-01-20T00:48:56.020Z,68.76
2019-01-20T00:54:02.277Z,68.45
2019-01-20T00:59:08.138Z,68.69
2019-01-20T01:04:14.120Z,68.60
2019-01-20T01:09:20.505Z,68.72
2019-01-20T01:14:26.801Z,68.47
2019-01-20T01:19:32.764Z,68.29
2019-01-20T01:24:39.045Z,68.26
2019-01-20T01:29:45.231Z,68.32
2019-01-20T01:34:51.183Z,68.06
2019-01-20T01:39:57.282Z,67.87
2019-01-20T01:45:03.441Z,68.06
2019-01-20T01:50:10.029Z,68.33
2019-01-20T01:55:15.898Z,68.29
2019-01-20T02:00:22.682Z,68.03
2019-01-20T02:05:28.573Z,67.91
2019-01-20T02:10:34.532Z,68.00
2019-01-20T02:15:40.590Z,68.28
2019-01-20T02:20:46.800Z,68.24
2019-01-20T02:25:52.506Z,68.39
2019-01-20T02:30:58.433Z,68.31
2019-01-20T02:36:04.702Z,68.62
2019-01-20T02:41:10.983Z,68.62
2019-01-20T02:46:16.960Z,68.85
2019-01-20T02:51:22.928Z,68.87
2019-01-20T02:56:29.149Z,69.13
2019-01-20T03:01:35.105Z,69.59
2019-01-20T03:06:40.954Z,69.85
2019-01-20T03:11:47.053Z,69.89
2019-01-20T03:16:53.521Z,69.97
2019-01-20T03:21:59.478Z,70.24
2019-01-20T03:27:05.528Z,70.02
2019-01-20T03:32:11.266Z,69.93
2019-01-20T03:37:16.987Z,70.03
2019-01-20T03:42:22.865Z,70.13
2019-01-20T03:47:28.593Z,70.16
2019-01-20T03:52:34.302Z,70.10
2019-01-20T03:57:40.098Z,70.04
2019-01-20T04:02:47.725Z,69.90
2019-01-20T04:07:53.864Z,69.92
2019-01-20T04:12:59.844Z,69.59
2019-01-20T04:18:06.248Z,69.77
2019-01-20T04:23:13.014Z,69.98
2019-01-20T04:28:19.289Z,70.30
2019-01-20T04:33:25.159Z,70.51
2019-01-20T04:38:30.936Z,70.55
2019-01-20T04:43:37.346Z,70.72
2019-01-20T04:48:43.405Z,70.89
2019-01-20T04:53:49.841Z,71.03
2019-01-20T04:58:55.751Z,71.25
2019-01-20T05:04:02.173Z,71.32
2019-01-20T05:09:08.513Z,71.33
2019-01-20T05:14:14.427Z,71.37
2019-01-20T05:19:20.359Z,71.35
2019-01-20T05:24:26.231Z,71.41
2019-01-20T05:29:32.637Z,71.41
2019-01-20T05:34:38.792Z,71.63
2019-01-20T05:39:44.847Z,71.63
2019-01-20T05:44:51.165Z,71.79
2019-01-20T05:49:58.268Z,71.79
2019-01-20T05:55:05.441Z,71.75
2019-01-20T06:00:14.506Z,71.78
2019-01-20T06:05:20.552Z,71.67
2019-01-20T06:10:26.554Z,71.55
2019-01-20T06:15:32.845Z,71.57
2019-01-20T06:20:38.756Z,71.26
2019-01-20T06:25:44.763Z,71.37
2019-01-20T06:30:50.713Z,71.25
2019-01-20T06:35:56.934Z,71.18
2019-01-20T06:41:03.088Z,71.02
2019-01-20T06:46:09.067Z,71.14
2019-01-20T06:51:15.247Z,71.21
2019-01-20T06:56:21.321Z,71.23
2019-01-20T07:01:27.315Z,70.94
2019-01-20T07:06:33.146Z,70.72
2019-01-20T07:11:39.050Z,70.78
2019-01-20T07:16:45.205Z,70.79
2019-01-20T07:21:50.943Z,70.33
2019-01-20T07:26:56.956Z,70.19
2019-01-20T07:32:03.339Z,70.15
2019-01-20T07:37:09.203Z,69.94
2019-01-20T07:42:15.810Z,69.79
2019-01-20T07:47:22.077Z,69.21
2019-01-20T07:52:27.889Z,69.22
2019-01-20T07:57:33.607Z,69.04
2019-01-20T08:02:39.475Z,68.71
2019-01-20T08:07:45.550Z,68.39
2019-01-20T08:12:51.268Z,68.62
2019-01-20T08:17:57.391Z,68.23
2019-01-20T08:23:03.550Z,68.14
2019-01-20T08:28:09.557Z,68.03
2019-01-20T08:33:15.640Z,68.10
2019-01-20T08:38:21.495Z,67.73
2019-01-20T08:43:31.758Z,67.65
2019-01-20T08:48:34.869Z,67.25
2019-01-20T08:53:40.855Z,67.12
2019-01-20T08:58:46.647Z,66.96
2019-01-20T09:03:52.916Z,66.95
2019-01-20T09:08:59.173Z,66.37
2019-01-20T09:14:05.557Z,66.11
2019-01-20T09:19:11.271Z,66.04
2019-01-20T09:24:17.304Z,65.91
2019-01-20T09:29:23.299Z,65.84
2019-01-20T09:34:29.425Z,66.00
2019-01-20T09:39:35.544Z,65.99
2019-01-20T09:44:41.476Z,65.97
2019-01-20T09:49:47.192Z,65.52
2019-01-20T09:54:53.376Z,65.59
2019-01-20T09:59:59.245Z,65.86
2019-01-20T10:05:09.738Z,65.92
2019-01-20T10:10:18.311Z,65.95
2019-01-20T10:15:24.633Z,65.98
2019-01-20T10:20:33.427Z,66.21
2019-01-20T10:25:39.528Z,65.98
2019-01-20T10:30:45.865Z,65.65
2019-01-20T10:35:53.382Z,65.14
2019-01-20T10:40:59.360Z,64.99
2019-01-20T10:46:05.677Z,64.98
2019-01-20T10:51:11.563Z,64.79
2019-01-20T10:56:17.719Z,64.78
2019-01-20T11:01:23.777Z,65.31
2019-01-20T11:06:29.680Z,65.32
2019-01-20T11:11:35.827Z,64.59
2019-01-20T11:16:41.813Z,64.56
2019-01-20T11:21:47.831Z,64.74
2019-01-20T11:26:53.767Z,65.52
2019-01-20T11:31:59.725Z,65.74
2019-01-20T11:37:06.118Z,65.82
2019-01-20T11:42:12.282Z,65.64
2019-01-20T11:47:18.467Z,65.33
2019-01-20T11:52:24.534Z,64.94
2019-01-20T11:57:30.316Z,64.92
2019-01-20T12:02:36.110Z,64.95
2019-01-20T12:07:42.132Z,65.09
2019-01-20T12:12:52.639Z,65.08
2019-01-20T12:17:58.509Z,64.85
2019-01-20T12:23:05.516Z,65.32
2019-01-20T12:28:11.785Z,65.71
2019-01-20T12:33:17.586Z,65.88
2019-01-20T12:38:23.532Z,65.76
2019-01-20T12:43:29.730Z,66.33
2019-01-20T12:48:35.785Z,66.89
2019-01-20T12:53:41.895Z,67.17
2019-01-20T12:58:47.980Z,67.88
2019-01-20T13:03:54.334Z,68.10
2019-01-20T13:09:00.248Z,68.60
2019-01-20T13:14:06.098Z,68.71
2019-01-20T13:19:12.046Z,68.48
2019-01-20T13:24:18.105Z,67.77
2019-01-20T13:29:23.955Z,67.79
2019-01-20T13:34:29.744Z,67.89
2019-01-20T13:39:35.927Z,67.87
2019-01-20T13:44:46.169Z,67.79
2019-01-20T13:49:50.022Z,68.15
2019-01-20T13:54:56.723Z,68.48
2019-01-20T14:00:02.884Z,68.97
2019-01-20T14:05:09.372Z,69.32
2019-01-20T14:10:17.981Z,69.33
2019-01-20T14:15:24.901Z,69.48
2019-01-20T14:20:30.775Z,69.24
2019-01-20T14:25:36.460Z,68.99
2019-01-20T14:30:42.215Z,69.24
2019-01-20T14:35:48.302Z,69.58
2019-01-20T14:40:54.492Z,70.15
2019-01-20T14:46:00.384Z,70.37
2019-01-20T14:51:06.559Z,70.42
2019-01-20T14:56:12.477Z,70.96
2019-01-20T15:01:18.322Z,71.58
2019-01-20T15:06:24.556Z,72.02
2019-01-20T15:11:30.917Z,72.33
2019-01-20T15:16:36.782Z,72.33
2019-01-20T15:21:42.865Z,72.48
2019-01-20T15:26:48.995Z,72.52
2019-01-20T15:31:55.317Z,72.44
2019-01-20T15:37:01.313Z,72.48
2019-01-20T15:42:07.376Z,72.51
2019-01-20T15:47:13.412Z,72.60
2019-01-20T15:52:19.324Z,73.37
2019-01-20T15:57:25.182Z,73.90
2019-01-20T16:02:31.216Z,75.72
2019-01-20T16:07:37.381Z,76.83
2019-01-20T16:12:43.486Z,77.07
2019-01-20T16:17:50.816Z,77.00
2019-01-20T16:22:57.009Z,76.62
2019-01-20T16:28:03.767Z,75.76
2019-01-20T16:33:10.188Z,76.33
2019-01-20T16:38:16.408Z,76.82
2019-01-20T16:43:22.762Z,77.50
2019-01-20T16:48:28.777Z,77.49
2019-01-20T16:53:34.774Z,77.68
2019-01-20T16:58:40.956Z,77.29
2019-01-20T17:03:46.711Z,77.00
2019-01-20T17:08:52.443Z,76.31
2019-01-20T17:13:58.615Z,76.09
2019-01-20T17:19:05.801Z,76.04
2019-01-20T17:24:11.641Z,75.70
2019-01-20T17:29:17.907Z,75.57
2019-01-20T17:34:23.784Z,75.42
2019-01-20T17:39:29.680Z,75.22
2019-01-20T17:44:35.739Z,75.25
2019-01-20T17:49:41.630Z,75.33
2019-01-20T17:54:47.918Z,75.62
2019-01-20T17:59:54.288Z,75.32
2019-01-20T18:05:00.982Z,75.42
2019-01-20T18:10:10.531Z,75.11
2019-01-20T18:15:19.549Z,75.06
2019-01-20T18:20:33.015Z,75.19
2019-01-20T18:25:39.314Z,75.32
2019-01-20T18:30:45.470Z,75.25
2019-01-20T18:35:52.500Z,75.27
2019-01-20T18:40:59.392Z,74.95
2019-01-20T18:46:06.203Z,75.29
2019-01-20T18:51:12.211Z,75.40
2019-01-20T18:56:18.072Z,75.36
2019-01-20T19:01:25.109Z,75.36
2019-01-20T19:06:31.049Z,75.56
2019-01-20T19:11:37.239Z,75.43
2019-01-20T19:16:43.325Z,75.59
2019-01-20T19:21:49.007Z,75.52
2019-01-20T19:26:55.178Z,75.45
2019-01-20T19:32:01.484Z,75.28
2019-01-20T19:37:07.732Z,75.08
2019-01-20T19:42:13.580Z,75.42
2019-01-20T19:47:19.496Z,75.98
2019-01-20T19:52:26.906Z,76.42
2019-01-20T19:57:33.195Z,76.80
2019-01-20T20:02:39.388Z,76.95
2019-01-20T20:07:45.386Z,77.29
2019-01-20T20:12:51.708Z,77.64
2019-01-20T20:17:57.955Z,77.86
2019-01-20T20:23:03.832Z,77.89
2019-01-20T20:28:09.729Z,78.06
2019-01-20T20:33:15.657Z,77.86
2019-01-20T20:38:21.482Z,78.08
2019-01-20T20:43:27.381Z,78.37
2019-01-20T20:48:33.324Z,78.71
2019-01-20T20:53:39.598Z,78.80
2019-01-20T20:58:45.433Z,78.74
2019-01-20T21:03:51.533Z,78.43
2019-01-20T21:08:57.332Z,77.96
2019-01-20T21:14:03.381Z,78.00
2019-01-20T21:19:09.155Z,78.25
2019-01-20T21:24:15.374Z,78.36
2019-01-20T21:29:21.615Z,78.12
2019-01-20T21:34:27.483Z,77.89
2019-01-20T21:39:33.513Z,77.99
2019-01-20T21:44:39.722Z,78.16
2019-01-20T21:49:45.689Z,78.34
2019-01-20T21:54:51.690Z,78.44
2019-01-20T21:59:57.692Z,78.27
2019-01-20T22:05:03.660Z,78.53
2019-01-20T22:10:17.621Z,78.47
2019-01-20T22:15:23.638Z,78.66
2019-01-20T22:20:29.512Z,78.80
2019-01-20T22:25:35.711Z,78.70
2019-01-20T22:30:41.692Z,78.77
2019-01-20T22:35:47.567Z,79.11
2019-01-20T22:40:53.329Z,79.02
2019-01-20T22:45:59.398Z,79.17
2019-01-20T22:51:06.309Z,79.03
2019-01-20T22:56:12.474Z,78.78
2019-01-20T23:01:18.554Z,78.44
2019-01-20T23:06:24.737Z,78.38
2019-01-20T23:11:31.031Z,78.38
2019-01-20T23:16:39.133Z,78.15
2019-01-20T23:21:45.079Z,78.08
2019-01-20T23:26:51.057Z,78.15
2019-01-20T23:31:57.465Z,77.93
2019-01-20T23:37:03.643Z,77.42
2019-01-20T23:42:09.584Z,77.42
2019-01-20T23:47:15.756Z,77.21
2019-01-20T23:52:21.847Z,77.53
2019-01-20T23:57:27.820Z,77.60
